createdAt,value
2023-01-26T00:38:25.030Z,25.99
2023-01-26T00:39:25.050Z,27.59
2023-01-26T00:40:25.067Z,28.41
2023-01-26T00:41:25.094Z,27.05
2023-01-26T00:42:25.113Z,25.00
2023-01-26T00:43:25.142Z,26.37
2023-01-26T00:44:25.146Z,30.16
2023-01-26T00:45:25.170Z,31.15
2023-01-26T00:46:25.212Z,27.46
2023-01-26T00:47:25.251Z,28.81
2023-01-26T00:48:25.267Z,28.32
2023-01-26T00:49:25.257Z,27.23
2023-01-26T00:50:25.283Z,29.76
2023-01-26T00:51:25.292Z,27.33
2023-01-26T00:52:25.330Z,26.63
2023-01-26T00:53:25.347Z,27.50
2023-01-26T00:54:25.364Z,28.24
2023-01-26T00:55:25.400Z,25.58
2023-01-26T00:56:25.440Z,27.54
2023-01-26T00:57:25.469Z,27.60
2023-01-26T00:58:25.468Z,27.36
2023-01-26T00:59:25.515Z,27.65
2023-01-26T01:00:25.539Z,26.35
2023-01-26T01:01:25.567Z,27.31
2023-01-26T01:02:25.600Z,28.31
2023-01-26T01:03:25.627Z,28.35
2023-01-26T01:04:25.669Z,28.90
2023-01-26T01:05:25.685Z,27.60
2023-01-26T01:06:25.707Z,27.70
2023-01-26T01:07:25.746Z,30.53
2023-01-26T01:08:25.761Z,29.93
2023-01-26T01:09:25.797Z,30.14
2023-01-26T01:10:25.810Z,29.60
2023-01-26T01:11:25.853Z,29.51
2023-01-26T01:12:25.875Z,27.27
2023-01-26T01:13:25.905Z,28.08
2023-01-26T01:14:25.916Z,28.61
2023-01-26T01:15:25.974Z,28.02
2023-01-26T01:16:26.048Z,27.03
2023-01-26T01:17:25.991Z,26.98
2023-01-26T01:18:26.017Z,25.90
2023-01-26T01:19:26.068Z,26.88
2023-01-26T01:20:26.059Z,26.69
2023-01-26T01:21:26.088Z,26.42
2023-01-26T01:22:26.134Z,29.40
2023-01-26T01:23:26.145Z,29.35
2023-01-26T01:24:26.186Z,27.81
2023-01-26T01:25:26.211Z,27.31
2023-01-26T01:26:26.221Z,25.89
2023-01-26T01:27:26.258Z,27.31
2023-01-26T01:28:26.277Z,27.19
2023-01-26T01:29:26.289Z,26.80
2023-01-26T01:30:26.323Z,29.82
2023-01-26T01:31:26.446Z,26.95
2023-01-26T01:32:26.372Z,26.13
2023-01-26T01:33:26.392Z,27.77
2023-01-26T01:34:26.417Z,27.79
2023-01-26T01:35:26.423Z,27.50
2023-01-26T01:36:26.448Z,28.42
2023-01-26T01:37:26.459Z,27.68
2023-01-26T01:38:26.483Z,29.20
2023-01-26T01:39:26.538Z,27.68
2023-01-26T01:40:26.546Z,28.04
2023-01-26T01:41:26.573Z,26.75
2023-01-26T01:42:26.598Z,25.55
2023-01-26T01:43:26.612Z,31.11
2023-01-26T01:44:26.637Z,29.85
2023-01-26T01:45:26.659Z,28.28
2023-01-26T01:46:26.699Z,25.85
2023-01-26T01:47:26.726Z,28.40
2023-01-26T01:48:26.729Z,26.71
2023-01-26T01:49:26.773Z,28.93
2023-01-26T01:50:26.807Z,26.86
2023-01-26T01:51:26.791Z,28.65
2023-01-26T01:52:26.830Z,26.43
2023-01-26T01:53:26.837Z,28.14
2023-01-26T01:54:26.897Z,26.50
2023-01-26T01:55:26.924Z,28.67
2023-01-26T01:56:26.919Z,29.19
2023-01-26T01:57:26.933Z,27.50
2023-01-26T01:58:26.959Z,27.88
2023-01-26T01:59:26.978Z,31.28
2023-01-26T02:00:27.019Z,27.59
2023-01-26T02:01:27.024Z,28.91
2023-01-26T02:02:27.026Z,27.98
2023-01-26T02:03:27.051Z,29.28
2023-01-26T02:04:27.070Z,28.94
2023-01-26T02:05:27.084Z,27.30
2023-01-26T02:06:27.095Z,26.85
2023-01-26T02:07:27.125Z,30.41
2023-01-26T02:08:27.163Z,25.08
2023-01-26T02:09:27.183Z,27.86
2023-01-26T02:10:27.215Z,27.49
2023-01-26T02:11:27.256Z,28.67
2023-01-26T02:12:27.261Z,27.52
2023-01-26T02:13:27.302Z,30.10
2023-01-26T02:14:27.287Z,30.58
2023-01-26T02:15:27.313Z,28.80
2023-01-26T02:16:27.374Z,29.21
2023-01-26T02:17:27.367Z,28.16
2023-01-26T02:18:27.390Z,25.90
2023-01-26T02:19:27.400Z,28.90
2023-01-26T02:20:27.414Z,27.90
2023-01-26T02:21:27.437Z,29.27
2023-01-26T02:22:27.470Z,29.07
2023-01-26T02:23:27.470Z,26.13
2023-01-26T02:24:27.490Z,26.21
2023-01-26T02:25:27.506Z,26.27
2023-01-26T02:26:27.534Z,28.32
2023-01-26T02:27:27.575Z,26.91
2023-01-26T02:28:27.583Z,25.81
2023-01-26T02:29:27.611Z,28.91
2023-01-26T02:30:27.626Z,27.02
2023-01-26T02:31:27.736Z,28.06
2023-01-26T02:32:27.671Z,29.04
2023-01-26T02:33:27.686Z,30.75
2023-01-26T02:34:27.706Z,27.69
2023-01-26T02:35:27.748Z,29.44
2023-01-26T02:36:27.769Z,28.51
2023-01-26T02:37:27.776Z,30.07
2023-01-26T02:38:27.799Z,30.95
2023-01-26T02:39:27.814Z,29.81
2023-01-26T02:40:27.862Z,29.54
2023-01-26T02:41:27.873Z,29.14
2023-01-26T02:42:27.918Z,25.98
2023-01-26T02:43:27.937Z,27.34
2023-01-26T02:44:27.961Z,27.58
2023-01-26T02:45:27.983Z,27.57
2023-01-26T02:46:28.045Z,29.07
2023-01-26T02:47:28.032Z,26.80
2023-01-26T02:48:28.078Z,26.56
2023-01-26T02:49:28.093Z,31.95
2023-01-26T02:50:28.094Z,26.98
2023-01-26T02:51:28.116Z,25.87
2023-01-26T02:52:28.127Z,29.02
2023-01-26T02:53:28.171Z,30.99
2023-01-26T02:54:28.175Z,26.73
2023-01-26T02:55:28.207Z,30.43
2023-01-26T02:56:28.237Z,26.21
2023-01-26T02:57:28.259Z,27.26
2023-01-26T02:58:28.291Z,25.75
2023-01-26T02:59:28.323Z,26.26
2023-01-26T03:00:28.343Z,27.68
2023-01-26T03:01:29.953Z,25.05
2023-01-26T03:02:28.532Z,25.63
2023-01-26T03:03:28.468Z,27.99
2023-01-26T03:04:28.446Z,29.29
2023-01-26T03:05:28.399Z,31.55
2023-01-26T03:06:28.404Z,29.03
2023-01-26T03:07:28.340Z,27.05
2023-01-26T03:08:28.320Z,25.00
2023-01-26T03:09:28.317Z,37.05
2023-01-26T03:10:28.342Z,25.49
2023-01-26T03:11:28.371Z,24.44
2023-01-26T03:12:28.389Z,31.44
2023-01-26T03:13:28.419Z,28.34
2023-01-26T03:14:28.429Z,27.59
2023-01-26T03:57:29.504Z,40.90
2023-01-26T03:58:29.483Z,46.33
2023-01-26T03:59:29.504Z,38.65
2023-01-26T04:00:29.546Z,32.13
2023-01-26T04:01:29.583Z,41.29
2023-01-26T04:02:29.557Z,45.26
2023-01-26T04:03:29.596Z,42.06
2023-01-26T04:04:29.637Z,38.96
2023-01-26T04:05:29.628Z,32.52
2023-01-26T04:06:29.671Z,34.35
2023-01-26T04:07:29.686Z,32.28
2023-01-26T04:08:29.700Z,40.21
2023-01-26T04:09:29.733Z,27.29
2023-01-26T04:10:29.741Z,33.23
2023-01-26T04:11:29.773Z,37.33
2023-01-26T04:12:29.781Z,35.07
2023-01-26T04:13:29.818Z,38.83
2023-01-26T04:14:29.831Z,37.31
2023-01-26T04:15:29.850Z,34.66
2023-01-26T04:16:29.922Z,34.61
2023-01-26T04:17:29.894Z,24.68
2023-01-26T04:18:29.931Z,33.03
2023-01-26T04:19:29.971Z,37.58
2023-01-26T04:20:29.972Z,36.87
2023-01-26T04:21:29.978Z,43.50
2023-01-26T04:22:30.010Z,35.91
2023-01-26T04:23:30.032Z,42.79
2023-01-26T04:24:30.575Z,36.27
2023-01-26T04:25:30.030Z,38.04
2023-01-26T04:26:29.980Z,37.74
2023-01-26T04:27:29.957Z,33.50
2023-01-26T04:28:29.912Z,33.14
2023-01-26T04:29:29.892Z,44.47
2023-01-26T04:30:29.875Z,36.22
2023-01-26T04:31:29.855Z,43.60
2023-01-26T04:32:29.840Z,43.20
2023-01-26T04:33:29.849Z,39.23
2023-01-26T04:34:29.893Z,31.25
2023-01-26T04:35:29.910Z,27.45
2023-01-26T04:36:29.936Z,37.08
2023-01-26T04:37:29.988Z,32.66
2023-01-26T04:38:29.984Z,34.46
2023-01-26T04:39:30.047Z,36.21
2023-01-26T04:40:30.038Z,38.45
2023-01-26T04:41:30.097Z,44.28
2023-01-26T04:42:30.106Z,41.94
2023-01-26T04:43:30.133Z,39.60
2023-01-26T04:44:30.144Z,36.84
2023-01-26T04:45:30.343Z,34.96
2023-01-26T04:46:30.215Z,36.22
2023-01-26T04:47:30.238Z,34.56
2023-01-26T04:48:30.280Z,36.71
2023-01-26T04:49:30.287Z,44.24
2023-01-26T04:50:30.352Z,45.47
2023-01-26T04:51:30.382Z,45.56
2023-01-26T04:52:30.383Z,39.13
2023-01-26T04:53:30.434Z,40.73
2023-01-26T04:54:30.432Z,35.52
2023-01-26T04:55:30.464Z,31.81
2023-01-26T04:56:30.506Z,32.63
2023-01-26T04:57:30.507Z,38.20
2023-01-26T04:58:30.551Z,38.91
2023-01-26T04:59:30.570Z,39.46
2023-01-26T05:00:30.634Z,40.13
2023-01-26T05:01:30.747Z,44.08
2023-01-26T05:02:30.756Z,39.10
2023-01-26T05:03:30.782Z,31.90
2023-01-26T05:04:30.845Z,31.34
2023-01-26T05:05:30.779Z,39.35
2023-01-26T05:06:30.758Z,35.03
2023-01-26T05:07:30.789Z,36.29
2023-01-26T05:08:30.836Z,41.41
2023-01-26T05:09:30.829Z,41.80
2023-01-26T05:10:30.854Z,43.17
2023-01-26T05:11:31.588Z,47.18
2023-01-26T05:12:30.856Z,40.28
2023-01-26T05:13:30.792Z,38.63
2023-01-26T05:14:30.778Z,36.01
2023-01-26T05:15:30.751Z,34.09
2023-01-26T05:16:30.769Z,29.08
2023-01-26T05:17:30.733Z,36.63
2023-01-26T05:18:30.720Z,42.18
2023-01-26T05:19:30.626Z,45.46
2023-01-26T05:20:30.649Z,41.87
2023-01-26T05:21:30.745Z,45.11
2023-01-26T05:22:31.092Z,43.21
2023-01-26T05:23:30.811Z,41.49
2023-01-26T05:24:31.594Z,35.35
2023-01-26T05:25:30.784Z,29.22
2023-01-26T05:26:30.797Z,27.08
2023-01-26T05:27:30.911Z,41.95
2023-01-26T05:28:30.792Z,47.09
2023-01-26T05:29:30.814Z,53.00
2023-01-26T05:30:30.841Z,53.52
2023-01-26T05:31:31.600Z,52.49
2023-01-26T05:32:30.792Z,40.21
2023-01-26T05:33:30.790Z,42.13
2023-01-26T05:34:30.856Z,44.73
2023-01-26T05:35:30.696Z,32.62
2023-01-26T05:36:30.701Z,41.85
2023-01-26T05:37:30.622Z,44.45
2023-01-26T05:38:30.594Z,50.19
2023-01-26T05:39:30.599Z,57.00
2023-01-26T05:40:30.637Z,54.72
2023-01-26T05:41:30.714Z,54.67
2023-01-26T05:42:30.746Z,46.20
2023-01-26T05:43:31.115Z,43.37
2023-01-26T05:44:30.814Z,39.08
2023-01-26T05:45:30.870Z,34.46
2023-01-26T05:46:30.836Z,39.40
2023-01-26T05:47:30.888Z,49.09
2023-01-26T05:48:30.893Z,51.99
2023-01-26T05:49:30.921Z,61.06
2023-01-26T05:50:30.979Z,57.93
2023-01-26T05:51:31.006Z,50.68
2023-01-26T05:52:31.034Z,52.43
2023-01-26T05:53:31.065Z,42.42
2023-01-26T05:54:31.104Z,44.92
2023-01-26T05:55:31.143Z,44.51
2023-01-26T05:56:31.167Z,51.85
2023-01-26T05:57:31.205Z,57.45
2023-01-26T05:58:31.176Z,57.61
2023-01-26T05:59:31.150Z,59.13
2023-01-26T06:00:31.123Z,58.17
2023-01-26T06:01:31.088Z,60.71
2023-01-26T06:02:31.159Z,57.08
2023-01-26T06:03:31.032Z,51.29
2023-01-26T06:04:31.047Z,46.30
2023-01-26T06:05:30.975Z,50.85
2023-01-26T06:06:30.948Z,60.63
2023-01-26T06:07:30.915Z,60.83
2023-01-26T06:08:30.919Z,61.41
2023-01-26T06:09:30.861Z,62.96
2023-01-26T06:10:30.851Z,61.37
2023-01-26T06:11:30.834Z,62.39
2023-01-26T06:12:30.820Z,63.72
2023-01-26T06:13:30.830Z,65.21
2023-01-26T06:14:30.826Z,72.60
2023-01-26T06:15:30.752Z,70.99
2023-01-26T06:16:30.678Z,68.63
2023-01-26T06:17:30.623Z,73.24
2023-01-26T06:18:30.593Z,73.04
2023-01-26T06:19:30.592Z,76.05
2023-01-26T06:20:30.560Z,73.50
2023-01-26T06:21:30.513Z,74.64
2023-01-26T06:22:30.506Z,75.73
2023-01-26T06:23:30.500Z,76.10
2023-01-26T06:24:30.420Z,72.71
2023-01-26T06:25:30.401Z,74.35
2023-01-26T06:26:30.382Z,73.75
2023-01-26T06:27:30.333Z,74.12
2023-01-26T06:28:30.305Z,72.48
2023-01-26T06:29:30.282Z,75.62
2023-01-26T06:30:30.401Z,76.20
2023-01-26T06:31:30.292Z,74.02
2023-01-26T06:32:30.179Z,74.21
2023-01-26T06:33:30.168Z,77.48
2023-01-26T06:34:30.109Z,78.54
2023-01-26T06:35:30.080Z,76.97
2023-01-26T06:36:30.065Z,82.49
2023-01-26T06:37:30.092Z,82.55
2023-01-26T06:38:29.991Z,82.65
2023-01-26T06:39:30.074Z,82.51
2023-01-26T06:40:30.060Z,88.45
2023-01-26T06:41:30.038Z,96.15
2023-01-26T06:42:29.883Z,103.69
2023-01-26T06:43:29.848Z,112.46
2023-01-26T06:44:29.841Z,118.02
2023-01-26T06:45:29.779Z,120.58
2023-01-26T06:46:29.766Z,126.32
2023-01-26T06:47:29.836Z,134.10
2023-01-26T06:48:29.681Z,140.16
2023-01-26T06:49:29.750Z,152.17
2023-01-26T06:50:29.602Z,159.59
2023-01-26T06:51:29.594Z,160.21
2023-01-26T06:52:29.533Z,166.96
2023-01-26T06:53:29.499Z,168.48
2023-01-26T06:54:29.498Z,168.99
2023-01-26T07:21:28.574Z,216.33
2023-01-26T07:22:28.551Z,220.13
2023-01-26T07:23:28.493Z,222.09
2023-01-26T07:24:28.503Z,223.24
2023-01-26T07:25:28.487Z,221.40
2023-01-26T07:26:28.421Z,225.08
2023-01-26T07:27:29.257Z,222.51
2023-01-26T07:28:28.295Z,226.66
2023-01-26T07:29:28.430Z,226.33
2023-01-26T07:30:30.788Z,225.59
2023-01-26T07:31:28.606Z,228.89
2023-01-26T07:32:28.366Z,222.77
2023-01-26T07:33:28.322Z,221.30
2023-01-26T07:34:28.290Z,221.13
2023-01-26T07:35:28.248Z,223.64
2023-01-26T07:36:28.276Z,225.44
2023-01-26T07:38:28.320Z,224.45
2023-01-26T07:39:30.246Z,226.38
2023-01-26T07:41:28.242Z,281.82
2023-01-26T07:42:28.196Z,285.97
2023-01-26T07:43:28.151Z,257.01
2023-01-26T07:44:28.138Z,250.00
2023-01-26T07:45:28.079Z,250.86
2023-01-26T07:46:28.082Z,249.79
2023-01-26T07:47:28.052Z,250.00
2023-01-26T07:48:28.089Z,249.10
2023-01-26T07:49:28.087Z,246.06
2023-01-26T07:50:28.102Z,238.96
2023-01-26T07:51:28.156Z,170.12
2023-01-26T07:52:28.165Z,164.49
2023-01-26T07:53:28.186Z,165.94
2023-01-26T07:54:28.199Z,191.13
2023-01-26T07:55:28.301Z,199.47
2023-01-26T07:56:28.269Z,194.22
2023-01-26T07:57:28.269Z,183.61
2023-01-26T07:58:28.283Z,174.74
2023-01-26T07:59:28.314Z,168.96
2023-01-26T08:00:28.346Z,166.09
2023-01-26T08:01:28.393Z,163.31
2023-01-26T08:02:28.449Z,160.57
2023-01-26T08:03:28.414Z,159.81
2023-01-26T08:04:28.493Z,157.83
2023-01-26T08:05:28.499Z,156.58
2023-01-26T08:06:28.485Z,157.81
2023-01-26T08:07:28.497Z,162.00
2023-01-26T08:08:28.516Z,164.63
2023-01-26T08:09:28.539Z,163.24
2023-01-26T08:10:28.586Z,168.40
2023-01-26T08:11:28.577Z,169.89
2023-01-26T08:12:28.595Z,170.83
2023-01-26T08:13:35.200Z,169.11
2023-01-26T08:14:45.205Z,169.30
2023-01-26T08:15:29.539Z,169.36
2023-01-26T08:16:28.591Z,169.74
2023-01-26T08:17:28.491Z,169.92
2023-01-26T08:18:28.427Z,172.28
2023-01-26T08:19:28.371Z,181.53
2023-01-26T08:20:28.419Z,187.25
2023-01-26T08:21:28.341Z,189.72
2023-01-26T08:22:28.252Z,189.92
2023-01-26T08:23:28.237Z,190.48
2023-01-26T08:24:28.214Z,190.52
2023-01-26T08:25:28.127Z,192.41
2023-01-26T08:26:28.082Z,194.27
2023-01-26T08:27:28.048Z,193.89
2023-01-26T08:28:28.018Z,194.51
2023-01-26T08:30:01.817Z,194.74
2023-01-26T08:30:27.929Z,195.20
2023-01-26T08:31:27.941Z,196.79
2023-01-26T08:32:27.864Z,197.24
2023-01-26T08:33:27.807Z,193.13
2023-01-26T08:34:27.758Z,189.88
2023-01-26T08:35:27.721Z,189.61
2023-01-26T08:36:27.712Z,186.13
2023-01-26T08:37:27.659Z,180.47
2023-01-26T08:38:27.615Z,180.84
2023-01-26T08:39:27.589Z,177.76
2023-01-26T08:40:27.550Z,174.80
2023-01-26T08:41:27.573Z,172.11
2023-01-26T08:42:27.459Z,175.88
2023-01-26T08:43:27.466Z,171.19
2023-01-26T08:44:27.401Z,170.05
2023-01-26T08:45:27.683Z,167.94
2023-01-26T08:46:27.361Z,169.14
2023-01-26T08:47:27.293Z,162.11
2023-01-26T08:48:27.233Z,162.33
2023-01-26T08:49:27.186Z,158.93
2023-01-26T08:50:27.159Z,158.32
2023-01-26T08:51:27.111Z,156.01
2023-01-26T08:52:27.082Z,156.40
2023-01-26T08:53:27.031Z,155.97
2023-01-26T08:54:26.975Z,154.24
2023-01-26T08:55:26.944Z,153.86
2023-01-26T08:56:26.907Z,153.48
2023-01-26T08:57:26.874Z,152.23
2023-01-26T08:58:26.811Z,150.52
2023-01-26T08:59:26.780Z,148.47
2023-01-26T09:00:26.724Z,149.79
2023-01-26T09:01:26.713Z,146.87
2023-01-26T09:02:26.718Z,145.53
2023-01-26T09:03:26.581Z,145.55
2023-01-26T09:04:26.544Z,140.67
2023-01-26T09:05:26.484Z,144.04
2023-01-26T09:06:26.460Z,140.23
2023-01-26T09:07:26.405Z,141.61
2023-01-26T09:08:26.377Z,138.56
2023-01-26T09:09:26.333Z,138.00
2023-01-26T09:10:26.286Z,136.07
2023-01-26T09:11:26.240Z,135.59
2023-01-26T09:12:26.201Z,136.09
2023-01-26T09:13:26.148Z,134.98
2023-01-26T09:14:26.104Z,133.15
2023-01-26T09:15:26.062Z,133.14
2023-01-26T09:16:26.067Z,130.17
2023-01-26T09:17:25.982Z,130.44
2023-01-26T09:18:25.931Z,126.83
2023-01-26T09:19:25.880Z,124.99
2023-01-26T09:20:25.845Z,123.17
2023-01-26T09:21:26.007Z,125.28
2023-01-26T09:22:25.777Z,123.63
2023-01-26T09:23:25.724Z,118.17
2023-01-26T09:24:25.792Z,120.02
2023-01-26T09:25:25.626Z,117.15
2023-01-26T09:26:25.621Z,118.56
2023-01-26T09:27:25.546Z,118.75
2023-01-26T09:28:25.507Z,117.22
2023-01-26T09:29:25.483Z,113.64
2023-01-26T09:30:25.632Z,115.65
2023-01-26T09:31:25.539Z,115.07
2023-01-26T09:32:25.364Z,116.95
2023-01-26T09:33:25.373Z,116.98
2023-01-26T09:34:25.356Z,116.22
2023-01-26T09:35:25.263Z,116.97
2023-01-26T09:36:25.213Z,111.30
2023-01-26T09:37:25.182Z,108.08
2023-01-26T09:38:25.180Z,112.27
2023-01-26T09:39:25.124Z,115.67
2023-01-26T09:40:25.081Z,112.16
2023-01-26T09:41:25.042Z,112.29
2023-01-26T09:42:24.985Z,113.43
2023-01-26T09:43:24.981Z,116.46
2023-01-26T09:44:24.935Z,112.48
2023-01-26T09:45:24.908Z,116.18
2023-01-26T09:46:24.958Z,117.05
2023-01-26T09:47:24.816Z,113.71
2023-01-26T09:48:25.522Z,115.23
2023-01-26T09:49:24.768Z,118.14
2023-01-26T09:50:24.716Z,117.43
2023-01-26T09:51:24.666Z,117.51
2023-01-26T09:52:24.724Z,121.79
2023-01-26T09:53:24.600Z,120.19
2023-01-26T09:54:24.567Z,118.86
2023-01-26T09:55:24.536Z,120.91
2023-01-26T09:56:24.497Z,119.87
2023-01-26T09:57:24.472Z,120.32
2023-01-26T09:58:24.449Z,120.70
2023-01-26T09:59:24.385Z,119.75
2023-01-26T10:00:24.357Z,119.96
2023-01-26T10:01:24.357Z,120.34
2023-01-26T10:02:24.330Z,120.63
2023-01-26T10:03:24.213Z,121.13
2023-01-26T10:04:24.197Z,122.17
2023-01-26T10:05:24.128Z,123.36
2023-01-26T10:06:24.130Z,123.15
2023-01-26T10:07:24.059Z,120.20
2023-01-26T10:08:24.011Z,121.32
2023-01-26T10:09:23.984Z,123.57
2023-01-26T10:10:23.931Z,120.11
2023-01-26T10:11:23.909Z,122.94
2023-01-26T10:12:23.885Z,122.03
2023-01-26T10:13:23.830Z,120.34
2023-01-26T10:14:23.769Z,122.64
2023-01-26T10:15:23.732Z,120.49
2023-01-26T10:16:23.693Z,120.75
2023-01-26T10:17:23.648Z,121.26
2023-01-26T10:18:23.592Z,122.24
2023-01-26T10:19:23.548Z,120.92
2023-01-26T10:20:23.514Z,125.04
2023-01-26T10:21:23.453Z,122.84
2023-01-26T10:22:23.415Z,121.47
2023-01-26T10:23:23.398Z,120.11
2023-01-26T10:24:23.367Z,122.88
2023-01-26T10:25:25.311Z,120.72
2023-01-26T10:26:23.228Z,120.04
2023-01-26T10:27:23.219Z,118.70
2023-01-26T10:28:23.153Z,119.45
2023-01-26T10:29:23.119Z,118.93
2023-01-26T10:30:23.120Z,120.49
2023-01-26T10:31:23.180Z,121.83
2023-01-26T10:32:22.994Z,119.56
2023-01-26T10:33:22.957Z,120.85
2023-01-26T10:34:22.908Z,118.99
2023-01-26T10:35:22.868Z,120.40
2023-01-26T10:36:22.860Z,119.22
2023-01-26T10:37:22.879Z,119.26
2023-01-26T10:38:22.724Z,117.68
2023-01-26T10:39:22.690Z,119.36
2023-01-26T10:40:22.647Z,117.76
2023-01-26T10:41:22.601Z,120.06
2023-01-26T10:42:22.558Z,118.75
2023-01-26T10:43:22.535Z,120.17
2023-01-26T10:44:22.533Z,119.61
2023-01-26T10:45:22.557Z,118.58
2023-01-26T10:46:22.544Z,118.71
2023-01-26T10:47:22.456Z,118.94
2023-01-26T10:48:22.405Z,119.62
2023-01-26T10:49:22.365Z,119.52
2023-01-26T10:50:22.332Z,119.59
2023-01-26T10:51:22.273Z,122.48
2023-01-26T10:52:22.246Z,120.81
2023-01-26T10:53:22.191Z,119.36
2023-01-26T10:54:22.165Z,119.48
2023-01-26T10:55:22.072Z,119.54
2023-01-26T10:56:22.052Z,120.31
2023-01-26T10:57:21.997Z,120.04
2023-01-26T10:58:21.947Z,122.45
2023-01-26T10:59:21.902Z,119.41
2023-01-26T11:00:21.844Z,119.46
2023-01-26T11:01:21.843Z,120.18
2023-01-26T11:02:21.755Z,121.20
2023-01-26T11:03:21.715Z,118.84
2023-01-26T11:04:21.676Z,120.77
2023-01-26T11:05:21.622Z,118.84
2023-01-26T11:06:21.582Z,117.92
2023-01-26T11:07:21.545Z,118.62
2023-01-26T11:08:21.506Z,119.13
2023-01-26T11:09:21.460Z,118.96
2023-01-26T11:10:21.403Z,118.48
2023-01-26T11:11:21.372Z,122.12
2023-01-26T11:12:21.319Z,119.68
2023-01-26T11:13:21.302Z,122.44
2023-01-26T11:14:21.223Z,120.87
2023-01-26T11:15:21.190Z,121.62
2023-01-26T11:16:21.147Z,121.24
2023-01-26T11:17:21.088Z,119.39
2023-01-26T11:18:21.062Z,120.26
2023-01-26T11:19:21.064Z,121.26
2023-01-26T11:20:20.968Z,123.77
2023-01-26T11:21:20.925Z,122.36
2023-01-26T11:22:20.900Z,123.44
2023-01-26T11:23:20.847Z,122.21
2023-01-26T11:24:20.813Z,126.08
2023-01-26T11:25:20.756Z,122.12
2023-01-26T11:26:20.727Z,122.75
2023-01-26T11:27:20.680Z,120.99
2023-01-26T11:28:20.623Z,120.83
2023-01-26T11:29:20.595Z,122.29
2023-01-26T11:30:20.558Z,121.72
2023-01-26T11:31:20.540Z,124.18
2023-01-26T11:32:20.464Z,124.22
2023-01-26T11:33:20.429Z,122.88
2023-01-26T11:34:20.392Z,122.55
2023-01-26T11:35:20.343Z,121.81
2023-01-26T11:36:20.303Z,124.66
2023-01-26T11:37:20.263Z,122.29
2023-01-26T11:38:20.212Z,122.14
2023-01-26T11:39:20.173Z,121.30
2023-01-26T11:40:20.164Z,120.45
2023-01-26T11:41:20.070Z,123.49
2023-01-26T11:42:20.038Z,121.40
2023-01-26T11:43:19.978Z,121.15
2023-01-26T11:44:19.963Z,122.04
2023-01-26T11:45:19.912Z,119.70
2023-01-26T11:46:19.852Z,121.80
2023-01-26T11:47:19.817Z,119.86
2023-01-26T11:48:19.774Z,119.93
2023-01-26T11:49:19.741Z,119.91
2023-01-26T11:50:19.687Z,119.63
2023-01-26T11:51:19.656Z,114.84
2023-01-26T11:52:19.605Z,116.24
2023-01-26T11:53:19.545Z,112.48
2023-01-26T11:54:19.514Z,114.24
2023-01-26T13:33:15.525Z,77.63
2023-01-26T13:34:15.487Z,76.65
2023-01-26T13:35:15.452Z,77.41
2023-01-26T13:36:15.414Z,75.03
2023-01-26T13:37:15.360Z,76.02
2023-01-26T13:38:15.323Z,77.81
2023-01-26T13:39:15.299Z,76.85
2023-01-26T13:40:15.267Z,78.29
2023-01-26T13:41:15.200Z,79.47
2023-01-26T13:42:15.166Z,77.99
2023-01-26T13:43:26.264Z,78.86
2023-01-26T13:44:16.094Z,79.02
2023-01-26T13:46:15.115Z,77.88
2023-01-26T13:47:14.955Z,78.96
2023-01-26T13:50:14.828Z,82.03
2023-01-26T13:51:14.792Z,84.59
2023-01-26T13:53:14.704Z,79.81
2023-01-26T13:54:14.669Z,82.81
2023-01-26T13:55:14.615Z,81.97
2023-01-26T13:56:14.587Z,84.72
2023-01-26T13:57:14.545Z,82.95
2023-01-26T13:58:14.500Z,83.50
2023-01-26T13:59:14.467Z,83.55
2023-01-26T14:00:14.682Z,81.87
2023-01-26T14:01:14.432Z,84.03
2023-01-26T14:02:14.330Z,80.85
2023-01-26T14:03:14.284Z,82.50
2023-01-26T14:04:14.238Z,83.19
2023-01-26T14:05:14.233Z,83.22
2023-01-26T14:06:14.145Z,84.87
2023-01-26T14:07:14.109Z,84.96
2023-01-26T14:08:14.106Z,84.16
2023-01-26T14:09:14.012Z,87.35
2023-01-26T14:10:14.169Z,84.86
2023-01-26T14:11:14.019Z,84.31
2023-01-26T14:12:13.900Z,88.70
2023-01-26T14:13:14.775Z,86.56
2023-01-26T14:14:13.809Z,88.10
2023-01-26T14:15:13.952Z,87.22
2023-01-26T14:16:13.751Z,85.60
2023-01-26T14:17:13.686Z,91.17
2023-01-26T14:18:13.633Z,86.46
2023-01-26T14:19:13.585Z,88.60
2023-01-26T14:20:13.555Z,86.39
2023-01-26T14:21:13.493Z,83.09
2023-01-26T14:22:13.479Z,88.73
2023-01-26T14:23:13.390Z,85.65
2023-01-26T14:24:13.381Z,87.80
2023-01-26T14:25:13.546Z,89.17
2023-01-26T14:26:13.270Z,88.34
2023-01-26T14:27:13.214Z,88.70
2023-01-26T14:28:13.179Z,86.82
2023-01-26T14:29:13.118Z,90.24
2023-01-26T14:30:13.392Z,90.13
2023-01-26T14:31:13.100Z,91.33
2023-01-26T14:32:12.989Z,90.83
2023-01-26T14:33:12.975Z,89.52
2023-01-26T14:34:12.907Z,88.46
2023-01-26T14:35:13.058Z,91.88
2023-01-26T14:36:12.844Z,88.84
2023-01-26T14:37:12.800Z,92.42
2023-01-26T14:38:12.852Z,92.10
2023-01-26T14:39:12.702Z,90.11
2023-01-26T14:40:12.977Z,91.91
2023-01-26T14:41:12.599Z,94.82
2023-01-26T14:42:12.560Z,88.79
2023-01-26T14:43:12.502Z,92.88
2023-01-26T14:44:12.474Z,91.92
2023-01-26T14:45:12.470Z,89.35
2023-01-26T14:46:12.423Z,92.73
2023-01-26T14:47:12.348Z,93.10
2023-01-26T14:48:12.317Z,90.48
2023-01-26T14:49:12.288Z,90.34
2023-01-26T14:50:12.560Z,92.20
2023-01-26T14:51:12.196Z,95.41
2023-01-26T14:52:12.168Z,94.25
2023-01-26T14:53:12.139Z,93.52
2023-01-26T14:54:12.120Z,96.09
2023-01-26T14:55:12.047Z,94.29
2023-01-26T14:56:12.004Z,93.65
2023-01-26T14:57:11.968Z,93.75
2023-01-26T14:58:11.939Z,92.93
2023-01-26T14:59:11.912Z,93.86
2023-01-26T15:00:12.114Z,93.73
2023-01-26T15:01:11.854Z,95.30
2023-01-26T15:02:11.804Z,94.91
2023-01-26T15:03:11.742Z,94.34
2023-01-26T15:04:11.704Z,94.38
2023-01-26T15:05:11.655Z,94.35
2023-01-26T15:06:11.621Z,93.75
2023-01-26T15:07:11.591Z,94.16
2023-01-26T15:08:11.554Z,95.01
2023-01-26T15:09:11.526Z,93.91
2023-01-26T15:10:11.764Z,94.87
2023-01-26T15:11:11.459Z,94.79
2023-01-26T15:12:11.804Z,93.12
2023-01-26T15:13:11.447Z,95.46
2023-01-26T15:14:11.419Z,93.81
2023-01-26T15:15:11.308Z,96.49
2023-01-26T15:16:11.279Z,92.20
2023-01-26T15:17:11.229Z,94.25
2023-01-26T15:18:11.189Z,97.42
2023-01-26T15:19:11.156Z,95.00
2023-01-26T15:20:11.475Z,97.11
2023-01-26T15:21:11.092Z,96.88
2023-01-26T15:22:11.059Z,93.70
2023-01-26T15:23:11.032Z,95.22
2023-01-26T15:24:11.091Z,93.12
2023-01-26T15:25:11.349Z,94.59
2023-01-26T15:26:10.923Z,98.47
2023-01-26T15:27:10.883Z,97.01
2023-01-26T15:28:10.851Z,99.23
2023-01-26T15:29:10.803Z,97.34
2023-01-26T15:30:10.780Z,97.17
2023-01-26T15:31:10.866Z,98.40
2023-01-26T15:32:10.742Z,95.86
2023-01-26T15:33:10.695Z,95.47
2023-01-26T15:34:10.644Z,95.82
2023-01-26T15:35:10.949Z,98.40
2023-01-26T15:36:10.580Z,95.76
2023-01-26T15:37:10.574Z,101.11
2023-01-26T15:38:10.522Z,96.23
2023-01-26T15:39:10.482Z,99.16
2023-01-26T15:40:10.454Z,94.69
2023-01-26T15:41:10.409Z,97.94
2023-01-26T15:42:10.371Z,98.89
2023-01-26T15:43:10.364Z,98.99
2023-01-26T15:44:10.296Z,96.77
2023-01-26T15:45:10.708Z,99.13
2023-01-26T15:46:10.313Z,100.44
2023-01-26T15:47:10.177Z,96.73
2023-01-26T15:48:10.152Z,99.10
2023-01-26T15:49:10.115Z,96.36
2023-01-26T15:50:18.971Z,97.12
2023-01-26T15:51:11.030Z,97.41
2023-01-26T15:52:09.995Z,97.74
2023-01-26T15:53:09.960Z,97.66
2023-01-26T15:56:57.889Z,25.00
2023-01-26T15:57:57.862Z,25.00
2023-01-26T15:58:57.847Z,25.00
2023-01-26T15:59:57.856Z,25.00
2023-01-26T16:04:34.024Z,25.00
2023-01-26T16:05:33.997Z,25.00
2023-01-26T16:06:33.972Z,25.00
2023-01-26T16:07:33.941Z,25.00
2023-01-26T16:08:33.916Z,25.00
2023-01-26T16:09:33.891Z,25.00
2023-01-26T16:10:33.859Z,26.59
2023-01-26T16:11:33.835Z,25.68
2023-01-26T16:12:33.870Z,24.49
2023-01-26T16:13:34.207Z,28.83
2023-01-26T16:14:33.749Z,25.00
2023-01-26T16:15:33.774Z,25.04
2023-01-26T16:16:33.782Z,24.98
2023-01-26T16:17:33.679Z,25.20
2023-01-26T16:18:33.671Z,31.36
2023-01-26T16:19:35.585Z,28.23